sensor_id;sensor_type;location;lat;lon;timestamp;P1;durP1;ratioP1;P2;durP2;ratioP2
63738;SDS011;68816;45.558;10.070;2023-04-24T00:01:27;10.27;;;4.78;;
63738;SDS011;68816;45.558;10.070;2023-04-24T00:03:54;7.03;;;4.88;;
63738;SDS011;68816;45.558;10.070;2023-04-24T00:06:24;7.18;;;5.00;;
63738;SDS011;68816;45.558;10.070;2023-04-24T00:09:01;8.90;;;5.30;;
63738;SDS011;68816;45.558;10.070;2023-04-24T00:11:27;8.15;;;4.60;;
63738;SDS011;68816;45.558;10.070;2023-04-24T00:13:52;7.65;;;4.68;;
63738;SDS011;68816;45.558;10.070;2023-04-24T00:16:18;10.75;;;5.07;;
63738;SDS011;68816;45.558;10.070;2023-04-24T00:18:44;7.93;;;4.97;;
63738;SDS011;68816;45.558;10.070;2023-04-24T00:21:10;6.30;;;4.90;;
63738;SDS011;68816;45.558;10.070;2023-04-24T00:23:36;9.05;;;4.95;;
63738;SDS011;68816;45.558;10.070;2023-04-24T00:26:01;7.47;;;5.50;;
63738;SDS011;68816;45.558;10.070;2023-04-24T00:28:27;6.95;;;5.38;;
63738;SDS011;68816;45.558;10.070;2023-04-24T00:30:53;8.23;;;4.70;;
63738;SDS011;68816;45.558;10.070;2023-04-24T00:33:18;5.53;;;4.72;;
63738;SDS011;68816;45.558;10.070;2023-04-24T00:35:44;8.77;;;5.20;;
63738;SDS011;68816;45.558;10.070;2023-04-24T00:38:09;9.32;;;5.28;;
63738;SDS011;68816;45.558;10.070;2023-04-24T00:40:35;6.53;;;4.82;;
63738;SDS011;68816;45.558;10.070;2023-04-24T00:43:00;6.80;;;5.10;;
63738;SDS011;68816;45.558;10.070;2023-04-24T00:45:26;7.93;;;5.60;;
63738;SDS011;68816;45.558;10.070;2023-04-24T00:47:52;7.78;;;5.53;;
63738;SDS011;68816;45.558;10.070;2023-04-24T00:50:18;6.68;;;5.40;;
63738;SDS011;68816;45.558;10.070;2023-04-24T00:52:44;9.10;;;5.13;;
63738;SDS011;68816;45.558;10.070;2023-04-24T00:55:10;6.88;;;4.80;;
63738;SDS011;68816;45.558;10.070;2023-04-24T00:57:36;7.35;;;4.50;;
63738;SDS011;68816;45.558;10.070;2023-04-24T01:00:03;6.47;;;5.03;;
63738;SDS011;68816;45.558;10.070;2023-04-24T01:02:30;7.20;;;5.03;;
63738;SDS011;68816;45.558;10.070;2023-04-24T01:04:59;7.50;;;5.25;;
63738;SDS011;68816;45.558;10.070;2023-04-24T01:07:26;8.88;;;5.80;;
63738;SDS011;68816;45.558;10.070;2023-04-24T01:09:52;7.97;;;6.07;;
63738;SDS011;68816;45.558;10.070;2023-04-24T01:12:18;10.90;;;6.90;;
63738;SDS011;68816;45.558;10.070;2023-04-24T01:14:44;9.85;;;7.25;;
63738;SDS011;68816;45.558;10.070;2023-04-24T01:17:10;9.80;;;7.53;;
63738;SDS011;68816;45.558;10.070;2023-04-24T01:19:36;11.27;;;8.15;;
63738;SDS011;68816;45.558;10.070;2023-04-24T01:22:02;12.20;;;9.02;;
63738;SDS011;68816;45.558;10.070;2023-04-24T01:24:28;9.85;;;8.55;;
63738;SDS011;68816;45.558;10.070;2023-04-24T01:26:54;12.05;;;8.90;;
63738;SDS011;68816;45.558;10.070;2023-04-24T01:29:20;11.07;;;8.63;;
63738;SDS011;68816;45.558;10.070;2023-04-24T01:31:46;11.57;;;8.63;;
63738;SDS011;68816;45.558;10.070;2023-04-24T01:34:11;12.20;;;9.13;;
63738;SDS011;68816;45.558;10.070;2023-04-24T01:36:37;12.73;;;9.80;;
63738;SDS011;68816;45.558;10.070;2023-04-24T01:39:04;17.45;;;11.93;;
63738;SDS011;68816;45.558;10.070;2023-04-24T01:41:29;17.38;;;12.98;;
63738;SDS011;68816;45.558;10.070;2023-04-24T01:43:55;18.20;;;13.55;;
63738;SDS011;68816;45.558;10.070;2023-04-24T01:46:23;18.17;;;13.48;;
63738;SDS011;68816;45.558;10.070;2023-04-24T01:48:49;17.15;;;14.32;;
63738;SDS011;68816;45.558;10.070;2023-04-24T01:51:16;17.20;;;13.50;;
63738;SDS011;68816;45.558;10.070;2023-04-24T01:53:41;19.05;;;13.55;;
63738;SDS011;68816;45.558;10.070;2023-04-24T01:56:07;18.48;;;13.68;;
63738;SDS011;68816;45.558;10.070;2023-04-24T01:58:32;19.27;;;12.75;;
63738;SDS011;68816;45.558;10.070;2023-04-24T02:00:57;15.23;;;12.52;;
63738;SDS011;68816;45.558;10.070;2023-04-24T02:03:24;15.48;;;12.63;;
63738;SDS011;68816;45.558;10.070;2023-04-24T02:05:51;17.45;;;12.68;;
63738;SDS011;68816;45.558;10.070;2023-04-24T02:08:16;18.73;;;12.85;;
63738;SDS011;68816;45.558;10.070;2023-04-24T02:10:42;18.20;;;12.93;;
63738;SDS011;68816;45.558;10.070;2023-04-24T02:13:07;17.23;;;12.68;;
63738;SDS011;68816;45.558;10.070;2023-04-24T02:15:33;17.52;;;12.15;;
63738;SDS011;68816;45.558;10.070;2023-04-24T02:17:58;17.92;;;12.23;;
63738;SDS011;68816;45.558;10.070;2023-04-24T02:20:23;15.65;;;12.20;;
63738;SDS011;68816;45.558;10.070;2023-04-24T02:22:49;17.00;;;12.50;;
63738;SDS011;68816;45.558;10.070;2023-04-24T02:25:14;17.48;;;13.25;;
63738;SDS011;68816;45.558;10.070;2023-04-24T02:27:40;16.08;;;11.88;;
63738;SDS011;68816;45.558;10.070;2023-04-24T02:30:06;15.95;;;12.13;;
63738;SDS011;68816;45.558;10.070;2023-04-24T02:32:32;18.42;;;12.13;;
63738;SDS011;68816;45.558;10.070;2023-04-24T02:34:59;16.75;;;12.82;;
63738;SDS011;68816;45.558;10.070;2023-04-24T02:37:24;16.02;;;11.15;;
63738;SDS011;68816;45.558;10.070;2023-04-24T02:39:50;19.70;;;11.18;;
63738;SDS011;68816;45.558;10.070;2023-04-24T02:42:15;14.07;;;11.10;;
63738;SDS011;68816;45.558;10.070;2023-04-24T02:44:41;15.60;;;11.05;;
63738;SDS011;68816;45.558;10.070;2023-04-24T02:47:06;15.68;;;10.80;;
63738;SDS011;68816;45.558;10.070;2023-04-24T02:49:33;14.00;;;10.35;;
63738;SDS011;68816;45.558;10.070;2023-04-24T02:51:59;16.00;;;10.77;;
63738;SDS011;68816;45.558;10.070;2023-04-24T02:54:24;15.38;;;10.32;;
63738;SDS011;68816;45.558;10.070;2023-04-24T02:56:50;12.43;;;9.80;;
63738;SDS011;68816;45.558;10.070;2023-04-24T02:59:16;11.50;;;9.13;;
63738;SDS011;68816;45.558;10.070;2023-04-24T03:01:41;11.65;;;8.70;;
63738;SDS011;68816;45.558;10.070;2023-04-24T03:04:07;11.80;;;8.98;;
63738;SDS011;68816;45.558;10.070;2023-04-24T03:06:32;14.20;;;8.32;;
63738;SDS011;68816;45.558;10.070;2023-04-24T03:09:00;10.70;;;8.60;;
63738;SDS011;68816;45.558;10.070;2023-04-24T03:11:26;13.48;;;8.80;;
63738;SDS011;68816;45.558;10.070;2023-04-24T03:13:51;14.93;;;9.05;;
63738;SDS011;68816;45.558;10.070;2023-04-24T03:16:17;11.27;;;8.35;;
63738;SDS011;68816;45.558;10.070;2023-04-24T03:18:42;12.07;;;8.95;;
63738;SDS011;68816;45.558;10.070;2023-04-24T03:21:08;13.02;;;8.82;;
63738;SDS011;68816;45.558;10.070;2023-04-24T03:23:33;11.30;;;9.05;;
63738;SDS011;68816;45.558;10.070;2023-04-24T03:25:58;13.52;;;8.75;;
63738;SDS011;68816;45.558;10.070;2023-04-24T03:28:24;13.35;;;8.88;;
63738;SDS011;68816;45.558;10.070;2023-04-24T03:30:50;13.60;;;9.27;;
63738;SDS011;68816;45.558;10.070;2023-04-24T03:33:15;11.95;;;9.65;;
63738;SDS011;68816;45.558;10.070;2023-04-24T03:35:41;13.40;;;9.45;;
63738;SDS011;68816;45.558;10.070;2023-04-24T03:38:06;14.57;;;9.80;;
63738;SDS011;68816;45.558;10.070;2023-04-24T03:40:32;14.15;;;10.20;;
63738;SDS011;68816;45.558;10.070;2023-04-24T03:42:58;14.50;;;10.55;;
63738;SDS011;68816;45.558;10.070;2023-04-24T03:45:24;14.52;;;10.60;;
63738;SDS011;68816;45.558;10.070;2023-04-24T03:47:49;13.73;;;10.85;;
63738;SDS011;68816;45.558;10.070;2023-04-24T03:50:15;14.25;;;10.57;;
63738;SDS011;68816;45.558;10.070;2023-04-24T03:52:40;12.95;;;10.55;;
63738;SDS011;68816;45.558;10.070;2023-04-24T03:55:06;16.38;;;11.30;;
63738;SDS011;68816;45.558;10.070;2023-04-24T03:57:32;16.83;;;11.55;;
63738;SDS011;68816;45.558;10.070;2023-04-24T03:59:57;15.75;;;10.73;;
63738;SDS011;68816;45.558;10.070;2023-04-24T04:02:23;17.23;;;11.30;;
63738;SDS011;68816;45.558;10.070;2023-04-24T04:04:48;15.57;;;11.23;;
63738;SDS011;68816;45.558;10.070;2023-04-24T04:07:13;16.98;;;11.10;;
63738;SDS011;68816;45.558;10.070;2023-04-24T04:09:39;15.98;;;11.07;;
63738;SDS011;68816;45.558;10.070;2023-04-24T04:12:05;15.32;;;11.52;;
63738;SDS011;68816;45.558;10.070;2023-04-24T04:14:30;16.25;;;12.00;;
63738;SDS011;68816;45.558;10.070;2023-04-24T04:16:56;14.10;;;11.30;;
63738;SDS011;68816;45.558;10.070;2023-04-24T04:19:21;14.07;;;11.65;;
63738;SDS011;68816;45.558;10.070;2023-04-24T04:21:47;14.98;;;11.63;;
63738;SDS011;68816;45.558;10.070;2023-04-24T04:24:17;14.45;;;10.90;;
63738;SDS011;68816;45.558;10.070;2023-04-24T04:26:42;14.13;;;10.70;;
63738;SDS011;68816;45.558;10.070;2023-04-24T04:29:11;14.98;;;11.35;;
63738;SDS011;68816;45.558;10.070;2023-04-24T04:31:37;14.02;;;11.20;;
63738;SDS011;68816;45.558;10.070;2023-04-24T04:34:02;14.57;;;10.40;;
63738;SDS011;68816;45.558;10.070;2023-04-24T04:36:28;10.85;;;9.20;;
63738;SDS011;68816;45.558;10.070;2023-04-24T04:38:54;12.25;;;8.32;;
63738;SDS011;68816;45.558;10.070;2023-04-24T04:41:20;9.15;;;7.25;;
63738;SDS011;68816;45.558;10.070;2023-04-24T04:43:45;8.45;;;6.38;;
63738;SDS011;68816;45.558;10.070;2023-04-24T04:46:11;8.52;;;6.30;;
63738;SDS011;68816;45.558;10.070;2023-04-24T04:48:37;6.35;;;4.85;;
63738;SDS011;68816;45.558;10.070;2023-04-24T04:51:03;4.60;;;3.78;;
63738;SDS011;68816;45.558;10.070;2023-04-24T04:53:28;3.90;;;3.42;;
63738;SDS011;68816;45.558;10.070;2023-04-24T04:55:54;5.32;;;3.75;;
63738;SDS011;68816;45.558;10.070;2023-04-24T04:58:19;4.28;;;3.63;;
63738;SDS011;68816;45.558;10.070;2023-04-24T05:00:45;4.90;;;3.88;;
63738;SDS011;68816;45.558;10.070;2023-04-24T05:03:11;4.80;;;4.30;;
63738;SDS011;68816;45.558;10.070;2023-04-24T05:05:36;5.47;;;4.20;;
63738;SDS011;68816;45.558;10.070;2023-04-24T05:08:05;6.50;;;4.60;;
63738;SDS011;68816;45.558;10.070;2023-04-24T05:10:32;7.40;;;4.60;;
63738;SDS011;68816;45.558;10.070;2023-04-24T05:12:57;6.70;;;5.00;;
63738;SDS011;68816;45.558;10.070;2023-04-24T05:15:23;5.38;;;4.88;;
63738;SDS011;68816;45.558;10.070;2023-04-24T05:17:48;6.78;;;5.03;;
63738;SDS011;68816;45.558;10.070;2023-04-24T05:20:14;5.53;;;4.97;;
63738;SDS011;68816;45.558;10.070;2023-04-24T05:22:39;5.65;;;5.05;;
63738;SDS011;68816;45.558;10.070;2023-04-24T05:25:05;6.18;;;5.07;;
63738;SDS011;68816;45.558;10.070;2023-04-24T05:27:31;4.97;;;4.50;;
63738;SDS011;68816;45.558;10.070;2023-04-24T05:29:56;6.32;;;4.75;;
63738;SDS011;68816;45.558;10.070;2023-04-24T05:32:21;3.08;;;2.78;;
63738;SDS011;68816;45.558;10.070;2023-04-24T05:34:47;4.35;;;3.88;;
63738;SDS011;68816;45.558;10.070;2023-04-24T05:37:12;4.15;;;2.58;;
63738;SDS011;68816;45.558;10.070;2023-04-24T05:39:38;3.42;;;2.72;;
63738;SDS011;68816;45.558;10.070;2023-04-24T05:42:04;1.90;;;1.65;;
63738;SDS011;68816;45.558;10.070;2023-04-24T05:44:30;2.42;;;1.85;;
63738;SDS011;68816;45.558;10.070;2023-04-24T05:46:56;1.52;;;0.88;;
63738;SDS011;68816;45.558;10.070;2023-04-24T05:49:21;1.10;;;1.00;;
63738;SDS011;68816;45.558;10.070;2023-04-24T05:51:47;1.60;;;0.98;;
63738;SDS011;68816;45.558;10.070;2023-04-24T05:54:12;0.90;;;0.80;;
63738;SDS011;68816;45.558;10.070;2023-04-24T05:56:38;1.08;;;0.90;;
63738;SDS011;68816;45.558;10.070;2023-04-24T05:59:04;1.20;;;0.82;;
63738;SDS011;68816;45.558;10.070;2023-04-24T06:01:29;0.70;;;0.60;;
63738;SDS011;68816;45.558;10.070;2023-04-24T06:03:56;0.82;;;0.70;;
63738;SDS011;68816;45.558;10.070;2023-04-24T06:06:22;1.52;;;0.90;;
63738;SDS011;68816;45.558;10.070;2023-04-24T06:08:48;0.60;;;0.60;;
63738;SDS011;68816;45.558;10.070;2023-04-24T06:11:14;0.60;;;0.52;;
63738;SDS011;68816;45.558;10.070;2023-04-24T06:13:39;0.88;;;0.73;;
63738;SDS011;68816;45.558;10.070;2023-04-24T06:16:05;0.85;;;0.75;;
63738;SDS011;68816;45.558;10.070;2023-04-24T06:18:30;2.20;;;1.00;;
63738;SDS011;68816;45.558;10.070;2023-04-24T06:20:56;1.20;;;0.70;;
63738;SDS011;68816;45.558;10.070;2023-04-24T06:23:21;2.22;;;1.08;;
63738;SDS011;68816;45.558;10.070;2023-04-24T06:25:46;1.42;;;1.02;;
63738;SDS011;68816;45.558;10.070;2023-04-24T06:28:12;0.98;;;0.85;;
63738;SDS011;68816;45.558;10.070;2023-04-24T06:30:38;1.52;;;0.80;;
63738;SDS011;68816;45.558;10.070;2023-04-24T06:33:03;1.10;;;0.85;;
63738;SDS011;68816;45.558;10.070;2023-04-24T06:35:29;2.22;;;1.17;;
63738;SDS011;68816;45.558;10.070;2023-04-24T06:37:54;2.95;;;1.08;;
63738;SDS011;68816;45.558;10.070;2023-04-24T06:40:21;8.63;;;1.10;;
63738;SDS011;68816;45.558;10.070;2023-04-24T06:42:47;1.98;;;1.10;;
63738;SDS011;68816;45.558;10.070;2023-04-24T06:45:12;1.25;;;1.00;;
63738;SDS011;68816;45.558;10.070;2023-04-24T06:47:38;1.20;;;0.80;;
63738;SDS011;68816;45.558;10.070;2023-04-24T06:50:03;0.85;;;0.65;;
63738;SDS011;68816;45.558;10.070;2023-04-24T06:52:29;1.10;;;0.80;;
63738;SDS011;68816;45.558;10.070;2023-04-24T06:55:01;1.58;;;0.63;;
63738;SDS011;68816;45.558;10.070;2023-04-24T06:57:29;1.65;;;0.60;;
63738;SDS011;68816;45.558;10.070;2023-04-24T06:59:56;1.35;;;0.70;;
63738;SDS011;68816;45.558;10.070;2023-04-24T07:02:21;3.95;;;1.60;;
63738;SDS011;68816;45.558;10.070;2023-04-24T07:04:47;1.50;;;1.30;;
63738;SDS011;68816;45.558;10.070;2023-04-24T07:07:13;1.20;;;1.00;;
63738;SDS011;68816;45.558;10.070;2023-04-24T07:09:39;1.85;;;0.93;;
63738;SDS011;68816;45.558;10.070;2023-04-24T07:12:07;0.60;;;0.60;;
63738;SDS011;68816;45.558;10.070;2023-04-24T07:14:33;0.98;;;0.70;;
63738;SDS011;68816;45.558;10.070;2023-04-24T07:16:59;1.50;;;0.90;;
63738;SDS011;68816;45.558;10.070;2023-04-24T07:19:24;1.42;;;0.70;;
63738;SDS011;68816;45.558;10.070;2023-04-24T07:21:50;0.93;;;0.70;;
63738;SDS011;68816;45.558;10.070;2023-04-24T07:24:15;3.22;;;0.77;;
63738;SDS011;68816;45.558;10.070;2023-04-24T07:26:41;2.30;;;0.80;;
63738;SDS011;68816;45.558;10.070;2023-04-24T07:29:06;0.90;;;0.52;;
63738;SDS011;68816;45.558;10.070;2023-04-24T07:31:32;1.63;;;0.80;;
63738;SDS011;68816;45.558;10.070;2023-04-24T07:33:58;2.25;;;0.60;;
63738;SDS011;68816;45.558;10.070;2023-04-24T07:36:23;1.15;;;0.43;;
63738;SDS011;68816;45.558;10.070;2023-04-24T07:38:50;0.90;;;0.60;;
63738;SDS011;68816;45.558;10.070;2023-04-24T07:41:16;0.77;;;0.60;;
63738;SDS011;68816;45.558;10.070;2023-04-24T07:43:41;0.77;;;0.45;;
63738;SDS011;68816;45.558;10.070;2023-04-24T07:46:08;1.23;;;0.45;;
63738;SDS011;68816;45.558;10.070;2023-04-24T07:48:34;0.50;;;0.40;;
63738;SDS011;68816;45.558;10.070;2023-04-24T07:51:00;1.55;;;0.60;;
63738;SDS011;68816;45.558;10.070;2023-04-24T07:53:25;1.23;;;0.80;;
63738;SDS011;68816;45.558;10.070;2023-04-24T07:55:51;1.60;;;0.70;;
63738;SDS011;68816;45.558;10.070;2023-04-24T07:58:16;0.50;;;0.50;;
63738;SDS011;68816;45.558;10.070;2023-04-24T08:00:42;1.05;;;0.60;;
63738;SDS011;68816;45.558;10.070;2023-04-24T08:03:07;2.55;;;0.80;;
63738;SDS011;68816;45.558;10.070;2023-04-24T08:05:33;1.23;;;0.75;;
63738;SDS011;68816;45.558;10.070;2023-04-24T08:07:58;1.73;;;1.00;;
63738;SDS011;68816;45.558;10.070;2023-04-24T08:10:24;2.15;;;0.82;;
63738;SDS011;68816;45.558;10.070;2023-04-24T08:12:50;1.52;;;1.05;;
63738;SDS011;68816;45.558;10.070;2023-04-24T08:15:15;1.13;;;0.82;;
63738;SDS011;68816;45.558;10.070;2023-04-24T08:17:41;1.05;;;0.93;;
63738;SDS011;68816;45.558;10.070;2023-04-24T08:20:07;2.75;;;1.00;;
63738;SDS011;68816;45.558;10.070;2023-04-24T08:22:38;1.92;;;1.50;;
63738;SDS011;68816;45.558;10.070;2023-04-24T08:25:07;1.48;;;1.38;;
63738;SDS011;68816;45.558;10.070;2023-04-24T08:27:33;2.00;;;1.55;;
63738;SDS011;68816;45.558;10.070;2023-04-24T08:29:59;2.55;;;1.58;;
63738;SDS011;68816;45.558;10.070;2023-04-24T08:32:25;3.45;;;2.38;;
63738;SDS011;68816;45.558;10.070;2023-04-24T08:34:54;3.80;;;2.30;;
63738;SDS011;68816;45.558;10.070;2023-04-24T08:37:21;3.30;;;2.50;;
63738;SDS011;68816;45.558;10.070;2023-04-24T08:39:47;3.38;;;3.08;;
63738;SDS011;68816;45.558;10.070;2023-04-24T08:42:13;3.15;;;2.80;;
63738;SDS011;68816;45.558;10.070;2023-04-24T08:44:39;4.65;;;3.20;;
63738;SDS011;68816;45.558;10.070;2023-04-24T08:47:05;3.55;;;3.20;;
63738;SDS011;68816;45.558;10.070;2023-04-24T08:49:35;6.35;;;4.85;;
63738;SDS011;68816;45.558;10.070;2023-04-24T08:52:01;8.95;;;3.72;;
63738;SDS011;68816;45.558;10.070;2023-04-24T08:54:28;7.43;;;4.90;;
63738;SDS011;68816;45.558;10.070;2023-04-24T08:56:54;10.80;;;6.63;;
63738;SDS011;68816;45.558;10.070;2023-04-24T08:59:27;9.63;;;6.60;;
63738;SDS011;68816;45.558;10.070;2023-04-24T09:01:53;7.95;;;6.10;;
63738;SDS011;68816;45.558;10.070;2023-04-24T09:04:20;10.93;;;7.20;;
63738;SDS011;68816;45.558;10.070;2023-04-24T09:06:48;8.38;;;6.68;;
63738;SDS011;68816;45.558;10.070;2023-04-24T09:09:15;8.30;;;6.90;;
63738;SDS011;68816;45.558;10.070;2023-04-24T09:11:41;10.32;;;6.95;;
63738;SDS011;68816;45.558;10.070;2023-04-24T09:14:07;7.15;;;6.45;;
63738;SDS011;68816;45.558;10.070;2023-04-24T09:16:35;8.80;;;6.93;;
63738;SDS011;68816;45.558;10.070;2023-04-24T09:19:00;9.27;;;6.75;;
63738;SDS011;68816;45.558;10.070;2023-04-24T09:21:30;8.20;;;6.10;;
63738;SDS011;68816;45.558;10.070;2023-04-24T09:23:58;8.80;;;6.82;;
63738;SDS011;68816;45.558;10.070;2023-04-24T09:26:31;7.45;;;6.38;;
63738;SDS011;68816;45.558;10.070;2023-04-24T09:28:58;8.80;;;6.85;;
63738;SDS011;68816;45.558;10.070;2023-04-24T09:31:24;11.02;;;6.60;;
63738;SDS011;68816;45.558;10.070;2023-04-24T09:34:03;9.10;;;6.72;;
63738;SDS011;68816;45.558;10.070;2023-04-24T09:36:31;7.32;;;6.18;;
63738;SDS011;68816;45.558;10.070;2023-04-24T09:39:06;9.75;;;6.03;;
63738;SDS011;68816;45.558;10.070;2023-04-24T09:41:43;7.88;;;6.63;;
63738;SDS011;68816;45.558;10.070;2023-04-24T09:44:14;8.40;;;5.55;;
63738;SDS011;68816;45.558;10.070;2023-04-24T09:46:44;7.13;;;5.70;;
63738;SDS011;68816;45.558;10.070;2023-04-24T09:49:15;6.07;;;5.15;;
63738;SDS011;68816;45.558;10.070;2023-04-24T09:51:41;7.13;;;4.95;;
63738;SDS011;68816;45.558;10.070;2023-04-24T09:54:14;6.20;;;5.07;;
63738;SDS011;68816;45.558;10.070;2023-04-24T09:59:10;5.72;;;5.00;;
63738;SDS011;68816;45.558;10.070;2023-04-24T10:01:36;7.03;;;5.57;;
63738;SDS011;68816;45.558;10.070;2023-04-24T10:04:03;7.78;;;5.15;;
63738;SDS011;68816;45.558;10.070;2023-04-24T10:06:35;7.50;;;5.43;;
63738;SDS011;68816;45.558;10.070;2023-04-24T10:09:01;5.53;;;4.80;;
63738;SDS011;68816;45.558;10.070;2023-04-24T10:11:28;6.60;;;4.47;;
63738;SDS011;68816;45.558;10.070;2023-04-24T10:13:55;6.05;;;5.10;;
63738;SDS011;68816;45.558;10.070;2023-04-24T10:16:22;5.13;;;4.47;;
63738;SDS011;68816;45.558;10.070;2023-04-24T10:18:48;8.20;;;4.45;;
63738;SDS011;68816;45.558;10.070;2023-04-24T10:21:14;6.30;;;4.80;;
63738;SDS011;68816;45.558;10.070;2023-04-24T10:23:41;4.78;;;3.95;;
63738;SDS011;68816;45.558;10.070;2023-04-24T10:26:12;4.88;;;3.60;;
63738;SDS011;68816;45.558;10.070;2023-04-24T10:28:46;5.97;;;4.00;;
63738;SDS011;68816;45.558;10.070;2023-04-24T10:31:16;4.13;;;3.65;;
63738;SDS011;68816;45.558;10.070;2023-04-24T10:33:43;6.28;;;5.13;;
63738;SDS011;68816;45.558;10.070;2023-04-24T10:36:11;5.65;;;4.72;;
63738;SDS011;68816;45.558;10.070;2023-04-24T10:38:39;5.30;;;4.68;;
63738;SDS011;68816;45.558;10.070;2023-04-24T10:41:07;4.45;;;3.90;;
63738;SDS011;68816;45.558;10.070;2023-04-24T10:43:44;3.67;;;3.28;;
63738;SDS011;68816;45.558;10.070;2023-04-24T10:46:10;4.88;;;3.00;;
63738;SDS011;68816;45.558;10.070;2023-04-24T10:48:35;6.85;;;4.30;;
63738;SDS011;68816;45.558;10.070;2023-04-24T10:51:10;6.18;;;4.68;;
63738;SDS011;68816;45.558;10.070;2023-04-24T10:53:37;6.93;;;6.25;;
63738;SDS011;68816;45.558;10.070;2023-04-24T10:56:06;8.10;;;6.55;;
63738;SDS011;68816;45.558;10.070;2023-04-24T10:58:41;6.10;;;5.15;;
63738;SDS011;68816;45.558;10.070;2023-04-24T11:01:22;4.00;;;3.38;;
63738;SDS011;68816;45.558;10.070;2023-04-24T11:03:53;6.03;;;4.47;;
63738;SDS011;68816;45.558;10.070;2023-04-24T11:06:28;5.50;;;4.57;;
63738;SDS011;68816;45.558;10.070;2023-04-24T11:09:04;4.97;;;4.30;;
63738;SDS011;68816;45.558;10.070;2023-04-24T11:11:37;7.05;;;4.15;;
63738;SDS011;68816;45.558;10.070;2023-04-24T11:14:07;3.90;;;3.50;;
63738;SDS011;68816;45.558;10.070;2023-04-24T11:16:54;4.55;;;4.15;;
63738;SDS011;68816;45.558;10.070;2023-04-24T11:19:23;5.85;;;4.80;;
63738;SDS011;68816;45.558;10.070;2023-04-24T11:26:58;3.92;;;3.22;;
63738;SDS011;68816;45.558;10.070;2023-04-24T11:29:47;4.22;;;3.30;;
63738;SDS011;68816;45.558;10.070;2023-04-24T11:34:47;5.65;;;3.63;;
63738;SDS011;68816;45.558;10.070;2023-04-24T11:37:13;3.55;;;3.25;;
63738;SDS011;68816;45.558;10.070;2023-04-24T11:39:39;3.88;;;3.38;;
63738;SDS011;68816;45.558;10.070;2023-04-24T11:42:05;4.70;;;3.83;;
63738;SDS011;68816;45.558;10.070;2023-04-24T11:44:33;3.80;;;3.33;;
63738;SDS011;68816;45.558;10.070;2023-04-24T11:47:00;4.03;;;3.58;;
63738;SDS011;68816;45.558;10.070;2023-04-24T11:49:25;4.07;;;3.40;;
63738;SDS011;68816;45.558;10.070;2023-04-24T11:51:54;3.40;;;3.10;;
63738;SDS011;68816;45.558;10.070;2023-04-24T11:54:20;4.68;;;3.17;;
63738;SDS011;68816;45.558;10.070;2023-04-24T11:56:46;5.07;;;3.15;;
63738;SDS011;68816;45.558;10.070;2023-04-24T11:59:12;3.97;;;3.20;;
63738;SDS011;68816;45.558;10.070;2023-04-24T12:01:47;4.22;;;3.83;;
63738;SDS011;68816;45.558;10.070;2023-04-24T12:04:14;5.22;;;3.97;;
63738;SDS011;68816;45.558;10.070;2023-04-24T12:07:02;4.70;;;3.42;;
63738;SDS011;68816;45.558;10.070;2023-04-24T12:09:27;6.15;;;4.43;;
63738;SDS011;68816;45.558;10.070;2023-04-24T12:11:53;5.80;;;5.13;;
63738;SDS011;68816;45.558;10.070;2023-04-24T12:14:22;7.72;;;4.88;;
63738;SDS011;68816;45.558;10.070;2023-04-24T12:16:48;6.75;;;4.82;;
63738;SDS011;68816;45.558;10.070;2023-04-24T12:19:18;7.22;;;5.60;;
63738;SDS011;68816;45.558;10.070;2023-04-24T12:21:58;5.43;;;4.55;;
63738;SDS011;68816;45.558;10.070;2023-04-24T12:24:24;6.15;;;5.45;;
63738;SDS011;68816;45.558;10.070;2023-04-24T12:26:50;6.53;;;5.93;;
63738;SDS011;68816;45.558;10.070;2023-04-24T12:29:21;7.03;;;6.32;;
63738;SDS011;68816;45.558;10.070;2023-04-24T12:31:47;7.72;;;6.82;;
63738;SDS011;68816;45.558;10.070;2023-04-24T12:34:19;8.20;;;6.70;;
63738;SDS011;68816;45.558;10.070;2023-04-24T12:36:45;9.40;;;6.67;;
63738;SDS011;68816;45.558;10.070;2023-04-24T12:39:15;5.65;;;4.07;;
63738;SDS011;68816;45.558;10.070;2023-04-24T12:41:54;8.55;;;7.65;;
63738;SDS011;68816;45.558;10.070;2023-04-24T12:44:31;8.20;;;7.28;;
63738;SDS011;68816;45.558;10.070;2023-04-24T12:46:59;11.55;;;8.48;;
63738;SDS011;68816;45.558;10.070;2023-04-24T12:49:29;10.38;;;8.48;;
63738;SDS011;68816;45.558;10.070;2023-04-24T12:51:55;10.45;;;7.80;;
63738;SDS011;68816;45.558;10.070;2023-04-24T12:54:21;10.57;;;9.02;;
63738;SDS011;68816;45.558;10.070;2023-04-24T12:56:47;10.88;;;8.75;;
63738;SDS011;68816;45.558;10.070;2023-04-24T12:59:13;11.18;;;8.98;;
63738;SDS011;68816;45.558;10.070;2023-04-24T13:01:38;9.63;;;8.45;;
63738;SDS011;68816;45.558;10.070;2023-04-24T13:04:04;7.93;;;5.22;;
63738;SDS011;68816;45.558;10.070;2023-04-24T13:06:30;10.88;;;8.45;;
63738;SDS011;68816;45.558;10.070;2023-04-24T13:08:56;11.15;;;9.05;;
63738;SDS011;68816;45.558;10.070;2023-04-24T13:11:23;11.40;;;9.52;;
63738;SDS011;68816;45.558;10.070;2023-04-24T13:13:49;12.88;;;10.77;;
63738;SDS011;68816;45.558;10.070;2023-04-24T13:16:14;12.25;;;9.63;;
63738;SDS011;68816;45.558;10.070;2023-04-24T13:18:40;9.55;;;6.28;;
63738;SDS011;68816;45.558;10.070;2023-04-24T13:21:05;12.88;;;8.52;;
63738;SDS011;68816;45.558;10.070;2023-04-24T13:23:31;12.00;;;10.48;;
63738;SDS011;68816;45.558;10.070;2023-04-24T13:25:56;11.63;;;9.98;;
63738;SDS011;68816;45.558;10.070;2023-04-24T13:28:23;13.18;;;9.48;;
63738;SDS011;68816;45.558;10.070;2023-04-24T13:30:50;10.93;;;8.95;;
63738;SDS011;68816;45.558;10.070;2023-04-24T13:33:16;10.95;;;7.32;;
63738;SDS011;68816;45.558;10.070;2023-04-24T13:35:41;10.55;;;6.80;;
63738;SDS011;68816;45.558;10.070;2023-04-24T13:38:07;12.38;;;8.60;;
63738;SDS011;68816;45.558;10.070;2023-04-24T13:40:32;12.52;;;9.68;;
63738;SDS011;68816;45.558;10.070;2023-04-24T13:42:58;9.60;;;7.93;;
63738;SDS011;68816;45.558;10.070;2023-04-24T13:45:23;9.90;;;6.75;;
63738;SDS011;68816;45.558;10.070;2023-04-24T13:47:49;8.57;;;6.72;;
63738;SDS011;68816;45.558;10.070;2023-04-24T13:50:14;7.65;;;5.93;;
63738;SDS011;68816;45.558;10.070;2023-04-24T13:52:40;10.85;;;5.00;;
63738;SDS011;68816;45.558;10.070;2023-04-24T13:55:06;8.30;;;4.55;;
63738;SDS011;68816;45.558;10.070;2023-04-24T13:57:31;4.90;;;4.35;;
63738;SDS011;68816;45.558;10.070;2023-04-24T13:59:57;4.25;;;2.78;;
63738;SDS011;68816;45.558;10.070;2023-04-24T14:02:27;2.97;;;1.10;;
63738;SDS011;68816;45.558;10.070;2023-04-24T14:04:52;0.68;;;0.50;;
63738;SDS011;68816;45.558;10.070;2023-04-24T14:07:18;1.92;;;0.35;;
63738;SDS011;68816;45.558;10.070;2023-04-24T14:09:43;1.17;;;0.43;;
63738;SDS011;68816;45.558;10.070;2023-04-24T14:12:09;1.00;;;0.20;;
63738;SDS011;68816;45.558;10.070;2023-04-24T14:14:34;1.08;;;0.32;;
63738;SDS011;68816;45.558;10.070;2023-04-24T14:17:00;1.95;;;0.35;;
63738;SDS011;68816;45.558;10.070;2023-04-24T14:19:25;3.38;;;0.50;;
63738;SDS011;68816;45.558;10.070;2023-04-24T14:21:51;0.75;;;0.30;;
63738;SDS011;68816;45.558;10.070;2023-04-24T14:24:16;3.03;;;0.50;;
63738;SDS011;68816;45.558;10.070;2023-04-24T14:26:41;0.63;;;0.28;;
63738;SDS011;68816;45.558;10.070;2023-04-24T14:29:07;3.90;;;0.90;;
63738;SDS011;68816;45.558;10.070;2023-04-24T14:31:32;1.30;;;0.50;;
63738;SDS011;68816;45.558;10.070;2023-04-24T14:33:58;1.40;;;0.40;;
63738;SDS011;68816;45.558;10.070;2023-04-24T14:36:23;4.03;;;0.57;;